createdAt,value
2019-01-19T00:00:39.478Z,6.50
2019-01-19T00:03:11.192Z,5.97
2019-01-19T00:06:06.613Z,7.57
2019-01-19T00:08:36.783Z,6.03
2019-01-19T00:11:30.672Z,5.87
2019-01-19T00:14:18.174Z,6.63
2019-01-19T00:17:03.384Z,6.33
2019-01-19T00:19:53.943Z,6.90
2019-01-19T00:22:39.288Z,5.77
2019-01-19T00:25:25.835Z,6.37
2019-01-19T00:27:57.153Z,5.60
2019-01-19T00:30:27.216Z,5.60
2019-01-19T00:33:04.740Z,6.67
2019-01-19T00:35:42.198Z,7.50
2019-01-19T00:38:16.632Z,7.03
2019-01-19T00:40:59.757Z,5.73
2019-01-19T00:43:31.862Z,6.17
2019-01-19T00:46:20.396Z,7.17
2019-01-19T00:48:59.400Z,7.73
2019-01-19T00:51:32.506Z,6.30
2019-01-19T00:54:10.696Z,6.40
2019-01-19T00:56:46.607Z,5.90
2019-01-19T00:59:15.707Z,6.13
2019-01-19T01:02:17.300Z,6.50
2019-01-19T01:04:58.391Z,9.10
2019-01-19T01:07:36.725Z,7.80
2019-01-19T01:10:08.275Z,6.13
2019-01-19T01:12:47.263Z,6.73
2019-01-19T01:15:32.223Z,5.90
2019-01-19T01:18:01.859Z,5.93
2019-01-19T01:20:47.123Z,6.60
2019-01-19T01:23:21.164Z,5.90
2019-01-19T01:26:07.690Z,5.50
2019-01-19T01:28:49.414Z,5.00
2019-01-19T01:31:25.913Z,5.83
2019-01-19T01:34:01.429Z,5.33
2019-01-19T01:36:53.858Z,5.93
2019-01-19T01:39:38.897Z,6.07
2019-01-19T01:42:24.320Z,5.60
2019-01-19T01:45:01.715Z,5.40
2019-01-19T01:47:33.423Z,5.60
2019-01-19T01:50:15.417Z,6.10
2019-01-19T01:53:05.155Z,5.90
2019-01-19T01:55:42.960Z,5.70
2019-01-19T01:58:11.577Z,5.60
2019-01-19T02:00:50.688Z,6.87
2019-01-19T02:03:25.684Z,5.83
2019-01-19T02:05:57.726Z,6.70
2019-01-19T02:08:30.584Z,5.90
2019-01-19T02:11:09.964Z,6.47
2019-01-19T02:13:42.706Z,4.90
2019-01-19T02:16:32.448Z,5.63
2019-01-19T02:19:04.232Z,6.03
2019-01-19T02:21:39.453Z,5.73
2019-01-19T02:24:16.399Z,5.87
2019-01-19T02:26:56.782Z,5.60
2019-01-19T02:29:46.099Z,6.47
2019-01-19T02:32:41.743Z,4.40
2019-01-19T02:35:24.825Z,6.13
2019-01-19T02:37:58.364Z,6.03
2019-01-19T02:40:50.691Z,5.57
2019-01-19T02:43:37.293Z,5.97
2019-01-19T02:46:23.897Z,5.60
2019-01-19T02:49:09.167Z,4.60
2019-01-19T02:51:54.308Z,5.00
2019-01-19T02:54:37.895Z,6.33
2019-01-19T02:57:27.687Z,4.27
2019-01-19T03:00:09.179Z,5.17
2019-01-19T03:02:41.112Z,5.47
2019-01-19T03:05:26.832Z,5.70
2019-01-19T03:08:14.483Z,5.40
2019-01-19T03:11:18.868Z,6.37
2019-01-19T03:14:11.427Z,6.87
2019-01-19T03:17:16.212Z,4.90
2019-01-19T03:19:55.669Z,5.27
2019-01-19T03:22:31.309Z,6.30
2019-01-19T03:25:17.928Z,5.27
2019-01-19T03:27:50.006Z,4.73
2019-01-19T03:30:32.460Z,4.97
2019-01-19T03:33:18.950Z,5.53
2019-01-19T03:36:17.679Z,5.23
2019-01-19T03:38:51.300Z,5.50
2019-01-19T03:41:39.432Z,5.50
2019-01-19T03:44:16.115Z,5.23
2019-01-19T03:46:56.567Z,5.00
2019-01-19T03:49:28.022Z,5.00
2019-01-19T03:52:01.979Z,4.73
2019-01-19T03:54:38.104Z,5.10
2019-01-19T03:57:24.702Z,5.20
2019-01-19T04:00:05.295Z,4.97
2019-01-19T04:02:36.816Z,4.90
2019-01-19T04:05:07.700Z,5.60
2019-01-19T04:07:41.477Z,5.00
2019-01-19T04:10:40.040Z,5.47
2019-01-19T04:13:16.863Z,5.53
2019-01-19T04:15:54.441Z,4.90
2019-01-19T04:18:24.119Z,5.07
2019-01-19T04:21:16.760Z,5.37
2019-01-19T04:23:45.989Z,5.97
2019-01-19T04:26:15.767Z,5.70
2019-01-19T04:28:43.023Z,5.80
2019-01-19T04:31:09.823Z,5.47
2019-01-19T04:33:36.656Z,5.00
2019-01-19T04:36:03.606Z,5.53
2019-01-19T04:38:30.901Z,6.30
2019-01-19T04:40:57.669Z,5.30
2019-01-19T04:43:24.556Z,5.87
2019-01-19T04:45:51.427Z,5.90
2019-01-19T04:48:20.612Z,6.30
2019-01-19T04:50:47.656Z,6.20
2019-01-19T04:53:14.509Z,5.90
2019-01-19T04:55:41.340Z,6.03
2019-01-19T04:58:08.207Z,5.80
2019-01-19T05:00:35.031Z,5.57
2019-01-19T05:03:01.937Z,6.30
2019-01-19T05:05:29.188Z,6.00
2019-01-19T05:07:56.020Z,6.00
2019-01-19T05:10:22.842Z,6.10
2019-01-19T05:12:49.872Z,5.80
2019-01-19T05:15:17.700Z,6.70
2019-01-19T05:17:44.768Z,6.03
2019-01-19T05:20:11.694Z,6.20
2019-01-19T05:22:38.528Z,6.30
2019-01-19T05:25:05.866Z,6.50
2019-01-19T05:27:32.699Z,6.70
2019-01-19T05:29:59.538Z,5.60
2019-01-19T05:32:26.836Z,7.40
2019-01-19T05:34:54.040Z,7.10
2019-01-19T05:37:20.848Z,7.13
2019-01-19T05:39:47.631Z,7.60
2019-01-19T05:42:14.491Z,7.27
2019-01-19T05:44:41.298Z,7.27
2019-01-19T05:47:08.213Z,9.40
2019-01-19T05:49:35.135Z,11.67
2019-01-19T05:52:02.146Z,8.27
2019-01-19T05:54:28.956Z,10.00
2019-01-19T05:56:55.784Z,10.50
2019-01-19T05:59:22.601Z,9.20
2019-01-19T06:01:49.485Z,11.10
2019-01-19T06:04:16.317Z,10.93
2019-01-19T06:06:46.928Z,11.87
2019-01-19T06:09:11.804Z,9.97
2019-01-19T06:11:38.573Z,10.70
2019-01-19T06:14:05.373Z,9.00
2019-01-19T06:16:32.178Z,9.73
2019-01-19T06:18:59.318Z,9.93
2019-01-19T06:21:30.302Z,8.80
2019-01-19T06:23:57.208Z,8.80
2019-01-19T06:26:23.988Z,9.37
2019-01-19T06:28:50.799Z,8.70
2019-01-19T06:31:17.621Z,8.33
2019-01-19T06:33:44.392Z,10.10
2019-01-19T06:36:11.199Z,8.90
2019-01-19T06:38:38.050Z,7.90
2019-01-19T06:41:04.859Z,8.20
2019-01-19T06:43:31.697Z,8.90
2019-01-19T06:45:58.475Z,8.60
2019-01-19T06:48:25.264Z,8.70
2019-01-19T06:50:52.055Z,9.47
2019-01-19T06:53:18.868Z,8.47
2019-01-19T06:55:45.909Z,9.20
2019-01-19T06:58:12.761Z,9.10
2019-01-19T07:00:39.647Z,8.90
2019-01-19T07:03:06.480Z,9.50
2019-01-19T07:05:33.547Z,8.53
2019-01-19T07:08:00.349Z,9.53
2019-01-19T07:10:27.144Z,9.20
2019-01-19T07:12:54.263Z,10.03
2019-01-19T07:15:21.086Z,9.17
2019-01-19T07:17:47.885Z,9.37
2019-01-19T07:20:16.176Z,9.57
2019-01-19T07:22:42.943Z,9.07
2019-01-19T07:25:09.817Z,8.90
2019-01-19T07:27:36.836Z,9.53
2019-01-19T07:30:04.495Z,10.77
2019-01-19T07:32:31.271Z,9.80
2019-01-19T07:34:58.087Z,10.23
2019-01-19T07:37:24.923Z,11.30
2019-01-19T07:39:51.683Z,11.80
2019-01-19T07:42:18.516Z,10.63
2019-01-19T07:44:45.684Z,10.90
2019-01-19T07:47:12.859Z,13.00
2019-01-19T07:49:39.704Z,11.40
2019-01-19T07:52:06.717Z,10.80
2019-01-19T07:54:33.513Z,10.20
2019-01-19T07:57:00.793Z,10.83
2019-01-19T07:59:27.705Z,9.77
2019-01-19T08:01:54.567Z,11.00
2019-01-19T08:04:21.410Z,13.30
2019-01-19T08:06:48.232Z,14.23
2019-01-19T08:09:15.003Z,12.97
2019-01-19T08:11:41.852Z,12.97
2019-01-19T08:14:08.951Z,10.87
2019-01-19T08:16:35.858Z,12.80
2019-01-19T08:19:02.954Z,12.47
2019-01-19T08:21:30.052Z,12.97
2019-01-19T08:23:56.920Z,13.20
2019-01-19T08:26:23.769Z,12.63
2019-01-19T08:28:50.738Z,14.53
2019-01-19T08:31:17.604Z,15.13
2019-01-19T08:33:44.483Z,15.07
2019-01-19T08:36:11.865Z,15.13
2019-01-19T08:38:38.723Z,14.80
2019-01-19T08:41:05.748Z,15.00
2019-01-19T08:43:39.343Z,14.70
2019-01-19T08:46:06.661Z,14.47
2019-01-19T08:48:33.918Z,13.70
2019-01-19T08:51:00.788Z,12.83
2019-01-19T08:53:27.585Z,13.37
2019-01-19T08:55:54.550Z,15.30
2019-01-19T08:58:21.459Z,15.10
2019-01-19T09:00:48.503Z,16.50
2019-01-19T09:03:15.369Z,14.60
2019-01-19T09:05:42.198Z,15.23
2019-01-19T09:08:09.153Z,15.30
2019-01-19T09:10:36.293Z,15.07
2019-01-19T09:13:03.296Z,14.07
2019-01-19T09:15:30.132Z,12.50
2019-01-19T09:17:56.937Z,15.23
2019-01-19T09:20:23.802Z,13.93
2019-01-19T09:22:54.873Z,13.50
2019-01-19T09:25:21.900Z,14.50
2019-01-19T09:27:48.919Z,14.20
2019-01-19T09:30:16.551Z,14.03
2019-01-19T09:32:43.743Z,15.13
2019-01-19T09:35:10.549Z,14.80
2019-01-19T09:37:40.949Z,15.20
2019-01-19T09:40:07.038Z,14.07
2019-01-19T09:42:33.939Z,14.20
2019-01-19T09:45:00.727Z,15.10
2019-01-19T09:47:27.630Z,16.47
2019-01-19T09:49:54.437Z,15.53
2019-01-19T09:52:21.457Z,16.00
2019-01-19T09:54:48.451Z,20.10
2019-01-19T09:57:15.283Z,15.47
2019-01-19T09:59:42.076Z,19.87
2019-01-19T10:02:09.467Z,16.70
2019-01-19T10:04:36.382Z,17.67
2019-01-19T10:07:03.824Z,17.07
2019-01-19T10:09:30.849Z,17.40
2019-01-19T10:11:57.756Z,16.50
2019-01-19T10:14:24.556Z,17.83
2019-01-19T10:16:51.462Z,15.53
2019-01-19T10:19:18.268Z,17.43
2019-01-19T10:21:45.154Z,17.63
2019-01-19T10:24:11.969Z,16.37
2019-01-19T10:26:38.853Z,16.23
2019-01-19T10:29:05.837Z,18.73
2019-01-19T10:31:32.935Z,16.90
2019-01-19T10:33:59.752Z,16.70
2019-01-19T10:36:26.592Z,20.53
2019-01-19T10:38:53.412Z,16.60
2019-01-19T10:41:20.213Z,17.60
2019-01-19T10:43:47.040Z,16.37
2019-01-19T10:46:13.852Z,17.80
2019-01-19T10:48:40.729Z,17.97
2019-01-19T10:51:07.532Z,17.27
2019-01-19T10:53:38.504Z,16.80
2019-01-19T10:56:05.329Z,16.60
2019-01-19T10:58:32.107Z,17.73
2019-01-19T11:00:59.436Z,18.03
2019-01-19T11:03:26.260Z,16.80
2019-01-19T11:05:53.039Z,19.87
2019-01-19T11:08:19.866Z,17.60
2019-01-19T11:10:46.651Z,16.30
2019-01-19T11:13:13.572Z,16.97
2019-01-19T11:15:40.421Z,16.37
2019-01-19T11:18:07.361Z,16.47
2019-01-19T11:20:34.136Z,15.93
2019-01-19T11:23:01.170Z,18.00
2019-01-19T11:25:28.176Z,18.87
2019-01-19T11:27:55.088Z,16.50
2019-01-19T11:30:22.904Z,17.93
2019-01-19T11:32:49.708Z,20.80
2019-01-19T11:35:16.754Z,17.90
2019-01-19T11:37:43.698Z,14.63
2019-01-19T11:40:12.192Z,16.20
2019-01-19T11:42:39.035Z,16.70
2019-01-19T11:45:07.913Z,17.73
2019-01-19T11:47:34.706Z,17.93
2019-01-19T11:50:01.623Z,15.73
2019-01-19T11:52:28.481Z,16.90
2019-01-19T11:54:55.358Z,15.80
2019-01-19T11:57:22.167Z,15.43
2019-01-19T11:59:49.018Z,16.33
2019-01-19T12:02:15.923Z,16.23
2019-01-19T12:04:45.512Z,16.10
2019-01-19T12:07:12.572Z,18.93
2019-01-19T12:09:39.395Z,17.57
2019-01-19T12:12:08.103Z,16.70
2019-01-19T12:14:35.142Z,16.73
2019-01-19T12:17:01.970Z,15.80
2019-01-19T12:19:29.097Z,18.60
2019-01-19T12:21:55.942Z,17.50
2019-01-19T12:24:22.760Z,16.33
2019-01-19T12:26:49.544Z,17.20
2019-01-19T12:29:16.413Z,16.60
2019-01-19T12:31:46.305Z,16.03
2019-01-19T12:34:13.097Z,15.20
2019-01-19T12:36:46.865Z,19.37
2019-01-19T12:39:13.832Z,15.50
2019-01-19T12:41:40.713Z,16.73
2019-01-19T12:44:07.885Z,17.97
2019-01-19T12:46:34.797Z,15.30
2019-01-19T12:49:01.600Z,14.33
2019-01-19T12:51:28.497Z,18.17
2019-01-19T12:53:55.521Z,15.00
2019-01-19T12:56:22.437Z,17.03
2019-01-19T12:58:49.344Z,16.83
2019-01-19T13:01:16.167Z,15.67
2019-01-19T13:03:43.200Z,14.23
2019-01-19T13:06:13.013Z,17.10
2019-01-19T13:08:39.953Z,15.37
2019-01-19T13:11:25.180Z,15.07
2019-01-19T13:13:51.963Z,13.93
2019-01-19T13:16:25.659Z,13.80
2019-01-19T13:18:55.441Z,15.90
2019-01-19T13:21:56.996Z,14.80
2019-01-19T13:24:46.381Z,16.63
2019-01-19T13:27:16.298Z,14.07
2019-01-19T13:29:49.053Z,13.93
2019-01-19T13:32:34.054Z,14.60
2019-01-19T13:35:25.103Z,13.90
2019-01-19T13:38:14.883Z,17.30
2019-01-19T13:40:49.435Z,17.10
2019-01-19T13:43:24.797Z,13.77
2019-01-19T13:45:57.186Z,15.10
2019-01-19T13:48:40.930Z,15.47
2019-01-19T13:51:33.706Z,13.97
2019-01-19T13:54:10.007Z,14.50
2019-01-19T13:56:46.695Z,16.07
2019-01-19T13:59:19.584Z,15.90
2019-01-19T14:02:06.290Z,16.93
2019-01-19T14:04:53.749Z,16.90
2019-01-19T14:07:39.090Z,15.17
2019-01-19T14:10:20.247Z,15.40
2019-01-19T14:13:24.861Z,17.10
2019-01-19T14:16:11.361Z,14.07
2019-01-19T14:18:40.888Z,14.80
2019-01-19T14:21:25.938Z,15.20
2019-01-19T14:23:57.072Z,15.57
2019-01-19T14:26:36.612Z,17.03
2019-01-19T14:29:21.595Z,16.23
2019-01-19T14:32:13.964Z,14.73
2019-01-19T14:34:59.023Z,18.17
2019-01-19T14:37:32.931Z,19.27
2019-01-19T14:40:09.696Z,16.53
2019-01-19T14:42:54.811Z,17.97
2019-01-19T14:45:29.204Z,16.80
2019-01-19T14:48:06.329Z,17.87
2019-01-19T14:50:56.121Z,17.93
2019-01-19T14:53:39.142Z,17.70
2019-01-19T14:56:23.920Z,17.70
2019-01-19T14:59:06.229Z,17.27
2019-01-19T15:01:36.787Z,16.30
2019-01-19T15:04:16.188Z,18.67
2019-01-19T15:06:48.474Z,17.03
2019-01-19T15:09:41.167Z,17.30
2019-01-19T15:12:35.602Z,15.97
2019-01-19T15:15:22.164Z,17.00
2019-01-19T15:18:07.323Z,17.40
2019-01-19T15:20:43.247Z,17.57
2019-01-19T15:23:24.801Z,18.37
2019-01-19T15:26:09.792Z,17.33
2019-01-19T15:28:49.718Z,19.07
2019-01-19T15:31:18.669Z,19.83
2019-01-19T15:34:23.533Z,20.13
2019-01-19T15:37:10.043Z,20.10
2019-01-19T15:39:46.090Z,19.53
2019-01-19T15:42:20.279Z,21.93
2019-01-19T15:44:53.406Z,19.60
2019-01-19T15:47:33.156Z,21.40
2019-01-19T15:50:11.043Z,20.77
2019-01-19T15:52:40.364Z,20.77
2019-01-19T15:55:25.730Z,20.67
2019-01-19T15:58:21.132Z,19.60
2019-01-19T16:00:56.908Z,19.40
2019-01-19T16:03:41.818Z,18.30
2019-01-19T16:06:19.800Z,20.70
2019-01-19T16:08:52.444Z,15.43
2019-01-19T16:11:23.298Z,16.97
2019-01-19T16:13:55.946Z,15.07
2019-01-19T16:16:33.714Z,15.90
2019-01-19T16:19:11.929Z,18.33
2019-01-19T16:22:13.588Z,18.60
2019-01-19T16:25:00.171Z,13.93
2019-01-19T16:27:46.825Z,15.20
2019-01-19T16:30:26.696Z,13.03
2019-01-19T16:33:19.493Z,15.73
2019-01-19T16:35:58.836Z,14.20
2019-01-19T16:38:45.843Z,14.77
2019-01-19T16:41:28.245Z,14.80
2019-01-19T16:44:05.456Z,13.60
2019-01-19T16:46:44.931Z,13.57
2019-01-19T16:49:25.383Z,13.40
2019-01-19T16:52:19.584Z,12.80
2019-01-19T16:54:50.151Z,14.23
2019-01-19T16:57:55.275Z,13.40
2019-01-19T17:00:53.723Z,14.53
2019-01-19T17:03:39.910Z,14.47
2019-01-19T17:06:13.696Z,13.47
2019-01-19T17:08:55.436Z,15.10
2019-01-19T17:11:27.153Z,14.50
2019-01-19T17:14:06.098Z,14.40
2019-01-19T17:16:37.988Z,14.40
2019-01-19T17:19:14.487Z,16.83
2019-01-19T17:22:01.596Z,15.90
2019-01-19T17:24:57.044Z,17.50
2019-01-19T17:27:43.636Z,18.57
2019-01-19T17:30:39.036Z,17.53
2019-01-19T17:33:23.973Z,18.90
2019-01-19T17:36:12.973Z,16.03
2019-01-19T17:39:04.503Z,19.43
2019-01-19T17:41:56.723Z,19.00
2019-01-19T17:44:29.294Z,18.90
2019-01-19T17:47:01.500Z,24.63
2019-01-19T17:49:30.295Z,20.90
2019-01-19T17:52:05.677Z,19.07
2019-01-19T17:54:50.608Z,21.00
2019-01-19T17:57:35.623Z,18.33
2019-01-19T18:00:22.306Z,19.53
2019-01-19T18:02:53.201Z,21.27
2019-01-19T18:05:51.849Z,19.30
2019-01-19T18:08:38.402Z,20.77
2019-01-19T18:11:23.629Z,20.20
2019-01-19T18:14:03.361Z,21.77
2019-01-19T18:16:48.445Z,20.60
2019-01-19T18:19:25.055Z,22.13
2019-01-19T18:22:11.820Z,25.40
2019-01-19T18:24:46.043Z,19.97
2019-01-19T18:27:16.511Z,19.70
2019-01-19T18:29:55.384Z,20.00
2019-01-19T18:32:34.642Z,19.90
2019-01-19T18:35:04.676Z,18.00
2019-01-19T18:37:53.297Z,18.97
2019-01-19T18:40:30.662Z,20.40
2019-01-19T18:43:15.804Z,21.60
2019-01-19T18:46:00.924Z,18.03
2019-01-19T18:48:46.049Z,18.40
2019-01-19T18:51:31.680Z,25.17
2019-01-19T18:54:16.793Z,20.20
2019-01-19T18:57:18.349Z,29.57
2019-01-19T19:00:00.635Z,25.33
2019-01-19T19:02:30.867Z,22.40
2019-01-19T19:05:16.213Z,20.17
2019-01-19T19:07:49.762Z,24.77
2019-01-19T19:10:25.655Z,23.30
2019-01-19T19:13:15.184Z,23.50
2019-01-19T19:15:59.605Z,24.67
2019-01-19T19:18:41.807Z,23.80
2019-01-19T19:21:21.216Z,25.50
2019-01-19T19:24:26.024Z,26.20
2019-01-19T19:27:21.617Z,27.30
2019-01-19T19:30:05.159Z,24.50
2019-01-19T19:32:54.788Z,25.70
2019-01-19T19:35:41.571Z,24.60
2019-01-19T19:38:26.515Z,24.67
2019-01-19T19:41:11.785Z,23.23
2019-01-19T19:43:55.048Z,22.57
2019-01-19T19:46:41.661Z,22.70
2019-01-19T19:49:24.057Z,19.80
2019-01-19T19:52:00.627Z,22.40
2019-01-19T19:54:28.013Z,22.20
2019-01-19T19:56:55.498Z,18.83
2019-01-19T19:59:22.933Z,23.53
2019-01-19T20:01:49.858Z,24.80
2019-01-19T20:04:17.833Z,25.30
2019-01-19T20:06:44.821Z,25.23
2019-01-19T20:09:11.777Z,25.50
2019-01-19T20:11:38.772Z,25.70
2019-01-19T20:14:05.757Z,26.30
2019-01-19T20:16:33.197Z,28.60
2019-01-19T20:19:00.241Z,26.50
2019-01-19T20:21:27.162Z,23.67
2019-01-19T20:23:54.326Z,24.80
2019-01-19T20:26:21.379Z,23.73
2019-01-19T20:28:48.505Z,24.90
2019-01-19T20:31:15.493Z,23.97
2019-01-19T20:33:42.325Z,22.33
2019-01-19T20:36:09.174Z,22.50
2019-01-19T20:38:36.108Z,22.10
2019-01-19T20:41:02.885Z,21.30
2019-01-19T20:43:29.932Z,22.37
2019-01-19T20:45:57.191Z,22.83
2019-01-19T20:48:24.514Z,23.10
2019-01-19T20:50:51.518Z,22.07
2019-01-19T20:53:18.426Z,25.00
2019-01-19T20:55:45.249Z,21.00
2019-01-19T20:58:15.125Z,23.30
2019-01-19T21:00:42.084Z,23.83
2019-01-19T21:03:09.284Z,22.40
2019-01-19T21:05:36.464Z,24.87
2019-01-19T21:08:03.490Z,23.23
2019-01-19T21:10:31.856Z,23.87
2019-01-19T21:12:59.071Z,24.07
2019-01-19T21:15:25.905Z,24.87
2019-01-19T21:17:55.895Z,25.43
2019-01-19T21:20:21.407Z,24.30
2019-01-19T21:22:48.546Z,25.33
2019-01-19T21:25:15.598Z,23.47
2019-01-19T21:27:42.460Z,24.70
2019-01-19T21:30:10.557Z,24.33
2019-01-19T21:32:37.377Z,24.00
2019-01-19T21:35:04.819Z,23.90
2019-01-19T21:37:31.612Z,24.50
2019-01-19T21:39:58.387Z,23.50
2019-01-19T21:42:25.304Z,24.13
2019-01-19T21:44:52.179Z,26.53
2019-01-19T21:47:18.983Z,23.30
2019-01-19T21:49:45.791Z,23.50
2019-01-19T21:52:12.608Z,25.27
2019-01-19T21:54:39.717Z,22.53
2019-01-19T21:57:07.114Z,22.37
2019-01-19T21:59:34.065Z,24.03
2019-01-19T22:02:00.894Z,23.40
2019-01-19T22:04:27.702Z,22.10
2019-01-19T22:06:54.603Z,23.90
2019-01-19T22:09:21.444Z,25.00
2019-01-19T22:11:48.324Z,22.60
2019-01-19T22:14:15.198Z,24.20
2019-01-19T22:16:42.106Z,25.70
2019-01-19T22:19:09.028Z,23.73
2019-01-19T22:21:35.884Z,24.50
2019-01-19T22:24:02.858Z,24.97
2019-01-19T22:26:29.989Z,25.90
2019-01-19T22:28:57.313Z,26.70
2019-01-19T22:31:24.501Z,25.03
2019-01-19T22:33:51.495Z,26.00
2019-01-19T22:36:19.115Z,25.17
2019-01-19T22:38:46.081Z,25.73
2019-01-19T22:41:13.222Z,25.03
2019-01-19T22:43:40.500Z,25.47
2019-01-19T22:46:07.701Z,23.80
2019-01-19T22:48:34.651Z,26.40
2019-01-19T22:51:01.930Z,25.77
2019-01-19T22:53:28.824Z,25.00
2019-01-19T22:55:55.973Z,25.17
2019-01-19T22:58:22.949Z,27.33
2019-01-19T23:01:08.067Z,24.97
2019-01-19T23:03:35.556Z,24.43
2019-01-19T23:06:02.494Z,24.53
2019-01-19T23:08:29.365Z,26.57
2019-01-19T23:11:01.094Z,24.83
2019-01-19T23:13:25.478Z,27.20
2019-01-19T23:15:52.423Z,25.20
2019-01-19T23:18:19.393Z,23.07
2019-01-19T23:20:46.324Z,25.10
2019-01-19T23:23:13.145Z,23.23
2019-01-19T23:25:39.917Z,25.83
2019-01-19T23:28:06.731Z,29.97
2019-01-19T23:30:33.691Z,30.47
2019-01-19T23:33:01.252Z,31.33
2019-01-19T23:35:28.119Z,28.73
2019-01-19T23:37:54.952Z,34.10
2019-01-19T23:40:21.797Z,26.30
2019-01-19T23:42:48.695Z,27.50
2019-01-19T23:45:15.680Z,26.00
2019-01-19T23:47:42.543Z,27.67
2019-01-19T23:50:09.670Z,25.80
2019-01-19T23:52:36.612Z,27.13
2019-01-19T23:55:03.587Z,26.77
2019-01-19T23:57:30.383Z,25.43
2019-01-19T23:59:57.210Z,25.20
